Time;durP1;ratioP1;P1;durP2;ratioP2;P2;SDS_P1;SDS_P2;PMS_P1;PMS_P2;Temp;Humidity;BMP_temperature;BMP_pressure;BME280_temperature;BME280_humidity;BME280_pressure;Samples;Min_cycle;Max_cycle;Signal;HPM_P1;HPM_P2
2021/07/06 13:10:48;;;;;;;2.10;1.10;;;;;;;30.34;33.78;99598.41;4987341;28;105935;-61
2021/07/06 13:13:15;;;;;;;1.50;1.00;;;;;;;30.32;33.98;99606.19;4986562;28;107369;-63
2021/07/06 13:15:45;;;;;;;1.85;1.17;;;;;;;30.44;33.97;99607.50;4983872;28;105904;-63
2021/07/06 13:18:13;;;;;;;2.92;1.00;;;;;;;30.34;33.74;99600.38;4965269;28;106537;-62
2021/07/06 13:20:46;;;;;;;1.40;1.17;;;;;;;30.58;33.98;99602.75;4965024;28;105996;-61
2021/07/06 13:23:12;;;;;;;2.72;1.30;;;;;;;30.44;34.16;99602.00;4964198;28;106122;-62
2021/07/06 13:25:39;;;;;;;2.95;1.40;;;;;;;30.53;34.20;99597.38;4963034;28;106403;-62
2021/07/06 13:28:05;;;;;;;4.20;1.25;;;;;;;30.73;33.71;99593.25;4963399;28;107149;-60
2021/07/06 13:30:36;;;;;;;2.88;1.17;;;;;;;30.55;33.54;99600.63;4962678;28;106451;-61
2021/07/06 13:33:14;;;;;;;1.58;1.23;;;;;;;30.32;34.02;99597.09;4964078;28;106764;-61
2021/07/06 13:35:41;;;;;;;2.42;1.08;;;;;;;30.16;34.13;99596.75;4963964;28;106266;-64
2021/07/06 13:38:07;;;;;;;2.13;1.20;;;;;;;30.13;34.24;99592.69;4964269;28;106834;-63
2021/07/06 13:40:32;;;;;;;2.53;1.30;;;;;;;30.24;34.60;99590.47;4964983;28;105912;-65
2021/07/06 13:42:58;;;;;;;1.38;1.17;;;;;;;30.34;34.79;99579.19;4964324;28;105913;-62
2021/07/06 13:45:24;;;;;;;2.67;1.33;;;;;;;30.55;34.58;99584.13;4964352;28;106346;-63
2021/07/06 13:47:52;;;;;;;3.78;1.30;;;;;;;30.65;34.13;99592.09;4965091;28;106627;-64
2021/07/06 13:50:19;;;;;;;1.85;1.48;;;;;;;30.52;34.37;99585.59;4964818;28;105869;-66
2021/07/06 13:52:45;;;;;;;3.28;1.27;;;;;;;30.41;34.16;99578.72;4965688;28;106331;-66
2021/07/06 13:55:17;;;;;;;2.15;1.33;;;;;;;30.33;34.37;99571.25;4965190;28;106165;-65
2021/07/06 13:57:42;;;;;;;4.43;1.50;;;;;;;30.36;34.76;99576.94;4965192;28;106623;-61
2021/07/06 14:00:08;;;;;;;3.88;1.35;;;;;;;30.43;34.60;99581.16;4965113;28;105810;-64
2021/07/06 14:02:34;;;;;;;1.45;1.10;;;;;;;30.42;34.34;99579.56;4965569;28;106046;-60
2021/07/06 14:05:01;;;;;;;3.25;1.20;;;;;;;30.38;34.00;99571.13;4963372;28;106001;-64
2021/07/06 14:07:27;;;;;;;2.72;1.20;;;;;;;30.38;34.06;99569.19;4964804;28;105968;-60
2021/07/06 14:09:52;;;;;;;2.45;1.30;;;;;;;30.31;33.78;99574.34;4963176;28;106258;-66
2021/07/06 14:12:18;;;;;;;1.27;1.17;;;;;;;30.33;33.46;99583.09;4965746;28;106154;-63
2021/07/06 14:14:43;;;;;;;2.33;1.50;;;;;;;30.32;33.67;99575.13;4965330;28;105854;-66
2021/07/06 14:17:09;;;;;;;3.85;2.05;;;;;;;30.34;34.21;99572.88;4964533;28;106529;-62
2021/07/06 14:19:35;;;;;;;4.53;2.08;;;;;;;30.19;34.16;99576.88;4964677;28;106045;-61
2021/07/06 14:22:01;;;;;;;5.88;1.95;;;;;;;30.01;34.34;99576.78;4953027;28;106429;-59
2021/07/06 14:24:26;;;;;;;4.47;1.30;;;;;;;29.95;34.52;99574.50;4951929;28;106266;-60
2021/07/06 14:26:53;;;;;;;2.65;1.40;;;;;;;29.97;34.54;99581.28;4951439;28;105985;-60
2021/07/06 14:29:18;;;;;;;1.80;1.30;;;;;;;29.95;34.69;99571.75;4951348;28;106373;-63
2021/07/06 14:31:44;;;;;;;2.78;1.30;;;;;;;30.03;34.78;99569.06;4952651;28;105852;-63
2021/07/06 14:34:10;;;;;;;1.75;1.20;;;;;;;30.15;34.46;99571.19;4951467;28;106154;-63
2021/07/06 14:36:36;;;;;;;2.80;1.10;;;;;;;30.19;34.49;99571.38;4951340;28;107039;-63
2021/07/06 14:39:03;;;;;;;2.40;1.40;;;;;;;30.13;34.65;99556.97;4950997;28;106573;-62
2021/07/06 14:41:28;;;;;;;2.22;1.17;;;;;;;30.10;34.35;99563.13;4951058;28;106317;-61
2021/07/06 14:43:54;;;;;;;4.80;1.50;;;;;;;30.14;34.41;99558.59;4951092;28;106184;-62
2021/07/06 14:46:19;;;;;;;5.82;1.20;;;;;;;30.21;34.13;99574.63;4950986;28;106154;-62
2021/07/06 14:48:44;;;;;;;3.95;1.60;;;;;;;30.17;34.56;99562.66;4951101;28;105761;-61
2021/07/06 14:51:10;;;;;;;2.17;1.02;;;;;;;30.25;34.22;99563.81;4951927;28;106412;-64
2021/07/06 14:53:35;;;;;;;2.72;1.08;;;;;;;30.26;34.42;99560.72;4951538;28;105788;-61
2021/07/06 14:56:00;;;;;;;1.63;0.82;;;;;;;30.24;33.71;99556.69;4951006;28;105796;-60
2021/07/06 14:58:26;;;;;;;2.90;0.90;;;;;;;30.22;33.73;99557.00;4951216;28;106163;-61
2021/07/06 15:00:51;;;;;;;3.40;1.17;;;;;;;30.23;33.66;99558.63;4952086;28;106547;-63
2021/07/06 15:03:16;;;;;;;2.65;0.95;;;;;;;30.23;33.38;99544.91;4951373;28;105964;-62
2021/07/06 15:05:42;;;;;;;1.13;0.90;;;;;;;30.25;32.96;99553.66;4949359;28;106963;-61
2021/07/06 15:08:07;;;;;;;0.90;0.80;;;;;;;30.21;32.68;99558.16;4951004;28;106108;-62
2021/07/06 15:10:33;;;;;;;2.45;1.00;;;;;;;30.16;32.56;99550.06;4951302;28;106226;-61
2021/07/06 15:13:00;;;;;;;1.98;0.90;;;;;;;30.08;32.96;99545.34;4951087;28;106239;-63
2021/07/06 15:15:27;;;;;;;2.28;0.80;;;;;;;30.10;33.07;99546.63;4950359;28;106070;-62
2021/07/06 15:17:53;;;;;;;2.45;1.17;;;;;;;30.12;32.82;99538.88;4950386;28;106421;-59
2021/07/06 15:20:21;;;;;;;2.25;0.80;;;;;;;30.09;32.81;99538.72;4951111;28;105884;-63
2021/07/06 15:22:48;;;;;;;1.45;0.80;;;;;;;30.03;32.95;99543.53;4950825;28;105917;-63
2021/07/06 15:25:14;;;;;;;1.25;0.93;;;;;;;29.97;32.92;99531.88;4949843;28;107936;-61
2021/07/06 15:27:40;;;;;;;3.05;0.70;;;;;;;30.02;33.01;99534.47;4950274;28;106004;-62
2021/07/06 15:30:06;;;;;;;1.77;0.90;;;;;;;30.03;33.30;99540.78;4951263;28;106436;-62
2021/07/06 15:32:31;;;;;;;1.30;0.90;;;;;;;30.04;33.71;99535.00;4948526;28;105876;-63
2021/07/06 15:34:57;;;;;;;2.47;1.00;;;;;;;30.07;33.58;99529.97;4950273;28;105875;-63
2021/07/06 15:37:22;;;;;;;1.25;0.98;;;;;;;30.04;33.56;99535.00;4949964;28;105965;-64
2021/07/06 15:39:48;;;;;;;3.05;0.73;;;;;;;30.02;33.63;99533.69;4951147;28;105931;-62
2021/07/06 15:42:13;;;;;;;1.63;1.00;;;;;;;30.00;33.49;99536.72;4939941;28;106230;-62
2021/07/06 15:44:38;;;;;;;2.67;1.00;;;;;;;29.93;33.64;99530.09;4929017;28;106569;-62
2021/07/06 15:47:04;;;;;;;3.22;0.98;;;;;;;29.94;33.81;99538.00;4929170;28;106375;-62
2021/07/06 15:49:29;;;;;;;2.63;1.10;;;;;;;29.93;33.83;99530.88;4930288;28;106157;-63
2021/07/06 15:51:55;;;;;;;1.00;0.80;;;;;;;29.93;34.16;99552.84;4927810;28;106720;-63
2021/07/06 15:54:20;;;;;;;1.60;0.77;;;;;;;29.89;33.62;99540.88;4928992;28;106927;-62
2021/07/06 15:56:46;;;;;;;1.42;1.00;;;;;;;29.90;33.78;99542.50;4928955;28;106743;-63
2021/07/06 15:59:12;;;;;;;1.10;0.80;;;;;;;29.92;33.89;99542.97;4928724;28;106046;-63
2021/07/06 16:01:38;;;;;;;1.77;0.90;;;;;;;29.86;34.12;99541.50;4929864;28;106051;-62
2021/07/06 16:04:04;;;;;;;1.20;0.80;;;;;;;29.85;34.13;99539.88;4929403;28;106982;-64
2021/07/06 16:06:29;;;;;;;1.90;1.15;;;;;;;29.85;34.04;99542.63;4928792;28;106146;-63
2021/07/06 16:08:55;;;;;;;1.92;1.02;;;;;;;29.85;33.87;99548.13;4929922;28;106602;-63
2021/07/06 16:11:21;;;;;;;1.70;0.82;;;;;;;29.86;33.95;99547.00;4929726;28;106246;-62
2021/07/06 16:13:47;;;;;;;3.30;1.00;;;;;;;29.85;34.58;99543.47;4929027;28;106058;-63
2021/07/06 16:16:13;;;;;;;4.93;1.27;;;;;;;29.85;34.39;99546.22;4928585;28;106382;-64
2021/07/06 16:18:39;;;;;;;1.23;1.00;;;;;;;29.85;34.56;99545.38;4929013;28;106305;-63
2021/07/06 16:21:05;;;;;;;2.58;0.90;;;;;;;29.81;34.70;99550.69;4927566;28;106406;-63
2021/07/06 16:23:30;;;;;;;1.30;0.80;;;;;;;29.69;34.44;99543.00;4928476;28;105964;-61
2021/07/06 16:25:55;;;;;;;1.67;0.98;;;;;;;29.68;34.35;99555.09;4928566;28;106168;-64
2021/07/06 16:28:23;;;;;;;1.83;1.00;;;;;;;29.68;34.76;99546.88;4929157;28;105996;-63
2021/07/06 16:30:49;;;;;;;1.60;1.08;;;;;;;29.73;34.83;99550.63;4928697;28;106391;-65
2021/07/06 16:33:15;;;;;;;1.58;1.23;;;;;;;29.73;34.41;99547.88;4928433;28;106373;-65
2021/07/06 16:35:45;;;;;;;1.40;1.10;;;;;;;29.78;34.65;99550.47;4928546;28;106543;-64
2021/07/06 16:38:13;;;;;;;2.63;1.20;;;;;;;29.79;34.35;99555.66;4927180;28;106242;-64
2021/07/06 16:40:44;;;;;;;4.00;1.07;;;;;;;29.78;34.60;99558.72;4929043;28;106451;-67
2021/07/06 16:43:09;;;;;;;3.45;1.10;;;;;;;29.73;34.61;99556.09;4927855;28;106609;-64
2021/07/06 16:45:34;;;;;;;1.88;1.10;;;;;;;29.71;35.08;99561.91;4926863;28;108416;-65
2021/07/06 16:48:00;;;;;;;2.67;1.08;;;;;;;29.71;34.73;99567.41;4929092;28;105883;-62
2021/07/06 16:50:25;;;;;;;2.90;1.10;;;;;;;29.69;35.08;99567.72;4928503;28;106337;-63
2021/07/06 18:04:41;;;;;;;3.25;1.45;;;;;;;28.61;38.34;99586.59;4931388;28;105951;-62
2021/07/06 18:07:07;;;;;;;3.08;1.55;;;;;;;28.54;38.29;99591.66;4930102;28;106101;-61
2021/07/06 18:09:36;;;;;;;2.78;1.45;;;;;;;28.49;38.78;99583.56;4929871;28;106082;-63
2021/07/06 18:12:05;;;;;;;4.70;1.48;;;;;;;28.45;38.89;99571.59;4930691;28;106034;-63
2021/07/06 18:14:31;;;;;;;5.25;1.77;;;;;;;28.44;39.34;99578.19;4931698;28;106476;-63
2021/07/06 18:16:56;;;;;;;6.43;2.60;;;;;;;28.48;39.46;99577.25;4930045;28;106034;-64
2021/07/06 18:19:22;;;;;;;3.80;1.45;;;;;;;28.46;39.12;99584.97;4930027;28;106672;-62
2021/07/06 18:21:47;;;;;;;8.38;1.42;;;;;;;28.42;39.47;99573.00;4930073;28;106065;-63
2021/07/06 18:24:12;;;;;;;2.47;1.20;;;;;;;28.41;39.48;99576.84;4931008;28;106082;-64
2021/07/06 18:26:38;;;;;;;5.35;1.58;;;;;;;28.37;39.56;99579.38;4930495;28;106196;-62
2021/07/06 18:29:03;;;;;;;7.90;1.70;;;;;;;28.33;39.56;99572.88;4930018;28;106706;-63
2021/07/06 18:31:29;;;;;;;8.68;1.63;;;;;;;28.30;39.64;99580.91;4929917;28;106095;-62
2021/07/06 18:33:54;;;;;;;4.28;1.40;;;;;;;28.26;39.43;99586.19;4930927;28;106019;-65
2021/07/06 18:36:19;;;;;;;5.32;1.20;;;;;;;28.22;39.72;99584.38;4930515;28;106002;-66
2021/07/06 18:38:45;;;;;;;5.68;2.53;;;;;;;28.19;39.92;99588.50;4930121;28;106664;-64
2021/07/06 18:41:10;;;;;;;9.57;1.75;;;;;;;28.13;39.73;99592.44;4930357;28;106398;-66
2021/07/06 18:43:35;;;;;;;5.00;1.70;;;;;;;28.09;39.87;99589.53;4930574;28;105962;-65
2021/07/06 18:46:01;;;;;;;2.92;1.45;;;;;;;28.03;40.30;99602.50;4930341;28;106398;-66
2021/07/06 18:48:26;;;;;;;7.35;1.80;;;;;;;28.00;40.40;99608.56;4929911;28;107132;-66
2021/07/06 18:50:51;;;;;;;9.63;1.80;;;;;;;27.96;40.71;99612.16;4930147;28;106513;-62
2021/07/06 18:53:24;;;;;;;8.45;2.45;;;;;;;27.94;40.55;99606.16;4930379;28;106517;-62
2021/07/06 18:55:50;;;;;;;13.70;2.17;;;;;;;27.89;41.13;99612.56;4930271;28;106496;-62
2021/07/06 18:58:16;;;;;;;10.18;3.38;;;;;;;27.85;40.94;99614.28;4929861;28;106115;-64
2021/07/06 19:00:41;;;;;;;8.20;2.08;;;;;;;27.81;41.35;99618.72;4929870;28;106066;-63
2021/07/06 19:03:08;;;;;;;11.35;2.58;;;;;;;27.77;41.30;99618.50;4930906;28;106495;-62
2021/07/06 19:05:36;;;;;;;7.35;2.30;;;;;;;27.76;41.67;99616.06;4929189;28;106236;-62
2021/07/06 19:08:01;;;;;;;8.52;2.22;;;;;;;27.69;41.82;99616.44;4929733;28;106907;-64
2021/07/06 19:10:28;;;;;;;7.55;2.33;;;;;;;27.62;42.04;99616.03;4928871;28;106101;-64
2021/07/06 19:12:53;;;;;;;9.68;3.05;;;;;;;27.54;42.01;99617.50;4930631;28;106741;-64
2021/07/06 19:15:19;;;;;;;6.65;2.75;;;;;;;27.51;42.49;99620.84;4929764;28;106439;-65
2021/07/06 19:17:47;;;;;;;9.60;3.08;;;;;;;27.49;42.72;99623.06;4928903;28;106574;-63
2021/07/06 19:20:15;;;;;;;10.13;2.22;;;;;;;27.47;42.95;99628.00;4929201;28;106245;-62
2021/07/06 19:22:41;;;;;;;8.85;2.47;;;;;;;27.40;42.70;99633.06;4930163;28;105995;-62
2021/07/06 19:25:31;;;;;;;9.77;2.30;;;;;;;27.30;43.22;99628.53;4929490;28;105922;-62
2021/07/06 19:33:31;;;;;;;10.63;2.58;;;;;;;27.13;44.50;99631.75;4927365;28;106793;-61
2021/07/06 19:35:56;;;;;;;8.13;2.40;;;;;;;27.10;44.65;99633.16;4929136;28;106379;-64
2021/07/06 19:38:22;;;;;;;8.27;2.40;;;;;;;27.01;44.58;99634.91;4928745;28;106171;-63
2021/07/06 19:40:47;;;;;;;11.45;2.63;;;;;;;26.89;45.22;99638.09;4928807;28;106425;-63
2021/07/06 19:43:13;;;;;;;11.98;3.70;;;;;;;26.76;45.62;99652.44;4929540;28;106831;-63
2021/07/06 19:45:38;;;;;;;10.30;4.03;;;;;;;26.65;46.01;99643.53;4929241;28;106429;-63
2021/07/06 19:48:03;;;;;;;13.57;4.05;;;;;;;26.58;46.48;99645.81;4928864;28;106053;-62
2021/07/06 19:50:29;;;;;;;9.20;2.72;;;;;;;26.55;47.04;99651.84;4929007;28;106139;-61
2021/07/06 19:52:54;;;;;;;12.85;2.78;;;;;;;26.54;46.91;99651.00;4929999;28;106314;-63
2021/07/06 19:55:23;;;;;;;10.43;2.53;;;;;;;26.51;47.45;99646.13;4928813;28;106323;-61
2021/07/06 19:57:49;;;;;;;7.95;2.45;;;;;;;26.50;47.35;99653.53;4928800;28;106638;-61
2021/07/06 20:00:14;;;;;;;8.43;2.50;;;;;;;26.49;47.32;99643.72;4927115;28;109659;-62
2021/07/06 20:02:40;;;;;;;9.75;2.33;;;;;;;26.50;47.64;99647.25;4929632;28;106103;-61
2021/07/06 20:05:05;;;;;;;9.27;2.78;;;;;;;26.48;47.68;99644.00;4929146;28;106165;-64
2021/07/06 20:07:31;;;;;;;10.15;2.42;;;;;;;26.42;47.65;99639.69;4928413;28;106066;-62
2021/07/06 20:09:56;;;;;;;14.27;4.15;;;;;;;26.35;47.86;99640.84;4928103;28;106326;-62
2021/07/06 20:12:22;;;;;;;22.20;13.50;;;;;;;26.29;47.70;99646.66;4929256;28;106135;-61
2021/07/06 20:14:47;;;;;;;8.77;3.80;;;;;;;26.19;47.61;99644.84;4928709;28;106002;-61
2021/07/06 20:17:12;;;;;;;14.68;3.70;;;;;;;26.08;48.25;99651.47;4927776;28;106136;-62
2021/07/06 20:19:38;;;;;;;12.50;3.35;;;;;;;26.02;48.25;99647.97;4927938;28;106317;-62
2021/07/06 20:22:04;;;;;;;3.85;2.90;;;;;;;25.98;48.31;99653.16;4929220;28;106026;-62
2021/07/06 20:24:29;;;;;;;4.38;2.78;;;;;;;25.93;48.56;99653.22;4928674;28;106190;-62
2021/07/06 20:26:54;;;;;;;7.65;2.60;;;;;;;25.86;48.70;99644.53;4928516;28;106153;-63
2021/07/06 20:29:20;;;;;;;4.45;2.55;;;;;;;25.81;48.54;99641.88;4927843;28;106715;-63
2021/07/06 20:31:45;;;;;;;7.15;2.75;;;;;;;25.77;48.65;99643.53;4929295;28;105979;-63
2021/07/06 20:34:10;;;;;;;4.75;2.70;;;;;;;25.71;48.79;99648.19;4928642;28;106014;-62
2021/07/06 20:36:36;;;;;;;8.57;3.03;;;;;;;25.64;48.69;99643.09;4928396;28;106487;-62
2021/07/06 20:39:02;;;;;;;4.82;2.65;;;;;;;25.58;48.97;99643.41;4928209;28;106157;-63
2021/07/06 20:41:27;;;;;;;6.80;2.90;;;;;;;25.53;49.08;99640.72;4928962;28;106126;-61
2021/07/06 20:43:54;;;;;;;6.68;3.20;;;;;;;25.46;49.19;99636.38;4928306;28;106324;-62
2021/07/06 20:46:19;;;;;;;7.30;3.17;;;;;;;25.41;49.21;99632.88;4928201;28;106030;-62
2021/07/06 20:48:45;;;;;;;8.60;3.35;;;;;;;25.23;49.28;99637.03;4927822;28;106423;-65
2021/07/06 20:51:10;;;;;;;9.57;4.03;;;;;;;25.06;49.84;99642.88;4928941;28;106454;-63
2021/07/06 20:53:35;;;;;;;7.30;3.90;;;;;;;24.94;50.16;99638.53;4928067;28;106244;-62
2021/07/06 20:56:01;;;;;;;5.38;2.40;;;;;;;24.81;50.64;99637.25;4928261;28;105964;-65
2021/07/06 20:58:27;;;;;;;9.18;3.28;;;;;;;24.75;50.84;99643.78;4928242;28;106094;-64
2021/07/06 21:00:52;;;;;;;7.85;3.45;;;;;;;24.71;51.01;99641.91;4929022;28;106424;-65
2021/07/06 21:03:17;;;;;;;15.07;3.20;;;;;;;24.71;51.29;99637.28;4928280;28;106480;-63
2021/07/06 21:05:43;;;;;;;14.52;3.63;;;;;;;24.65;51.08;99633.75;4927747;28;106544;-65
2021/07/06 21:08:08;;;;;;;13.40;3.28;;;;;;;24.62;51.21;99637.03;4926454;28;106244;-65
2021/07/06 21:10:34;;;;;;;7.28;2.60;;;;;;;24.49;51.31;99632.13;4928505;28;106180;-65
2021/07/06 21:13:00;;;;;;;5.40;2.63;;;;;;;24.40;51.33;99639.22;4927877;28;106267;-65
2021/07/06 21:15:26;;;;;;;4.22;2.30;;;;;;;24.25;51.72;99649.06;4927651;28;106058;-65
2021/07/06 21:17:51;;;;;;;5.38;2.40;;;;;;;24.13;52.18;99657.53;4927033;28;106083;-64
2021/07/06 21:20:17;;;;;;;8.73;2.95;;;;;;;24.02;52.46;99664.06;4928404;28;106119;-64
2021/07/06 21:22:42;;;;;;;6.93;3.65;;;;;;;23.99;53.04;99661.91;4928201;28;106141;-64
2021/07/06 21:25:08;;;;;;;9.23;3.20;;;;;;;23.93;53.05;99661.06;4926121;28;106003;-65
2021/07/06 21:27:34;;;;;;;5.55;2.40;;;;;;;23.86;53.11;99667.84;4926387;28;106818;-64
2021/07/06 21:30:00;;;;;;;4.97;2.33;;;;;;;23.80;53.60;99667.84;4928236;28;106055;-64
2021/07/06 21:32:25;;;;;;;5.70;2.40;;;;;;;23.76;53.57;99677.63;4930979;28;106505;-64
2021/07/06 21:34:51;;;;;;;5.75;3.35;;;;;;;23.65;53.74;99671.34;4931755;28;105923;-64
2021/07/06 21:37:17;;;;;;;4.55;2.42;;;;;;;23.54;53.82;99658.84;4931011;28;106062;-65
2021/07/06 21:39:43;;;;;;;4.10;2.20;;;;;;;23.44;53.97;99656.91;4931795;28;106094;-64
2021/07/06 21:42:08;;;;;;;4.35;2.45;;;;;;;23.35;54.44;99654.97;4931000;28;106343;-64
2021/07/06 21:44:36;;;;;;;6.55;2.70;;;;;;;23.25;54.60;99662.03;4905631;28;106797;-63
2021/07/06 21:47:02;;;;;;;3.65;2.38;;;;;;;23.15;54.96;99662.81;4911390;28;106594;-64
2021/07/06 21:49:27;;;;;;;7.38;2.80;;;;;;;23.07;55.01;99670.63;4912204;28;106151;-64
2021/07/06 21:51:55;;;;;;;6.60;2.70;;;;;;;23.00;55.52;99665.44;4911820;28;106271;-64
2021/07/06 21:54:21;;;;;;;4.88;2.30;;;;;;;22.97;55.51;99661.34;4911074;28;106117;-65
2021/07/06 21:56:46;;;;;;;7.43;2.83;;;;;;;22.94;55.76;99661.88;4911516;28;106005;-64
2021/07/06 21:59:11;;;;;;;4.57;2.60;;;;;;;22.91;56.12;99667.84;4912050;28;106797;-64
2021/07/06 22:01:37;;;;;;;4.22;2.60;;;;;;;22.89;56.27;99670.00;4911139;28;106353;-64
2021/07/06 22:04:02;;;;;;;10.00;3.40;;;;;;;22.89;56.50;99674.63;4911599;28;106562;-64
2021/07/06 22:06:28;;;;;;;5.47;2.78;;;;;;;22.91;56.80;99662.44;4911069;28;106091;-64
2021/07/06 22:08:53;;;;;;;7.50;3.55;;;;;;;22.91;56.83;99669.72;4911723;28;106050;-65
2021/07/06 22:11:18;;;;;;;6.75;2.80;;;;;;;22.95;56.62;99668.97;4926398;28;106189;-64
2021/07/06 22:13:44;;;;;;;7.03;2.53;;;;;;;22.92;56.72;99666.78;4911351;28;106495;-64
2021/07/06 22:16:09;;;;;;;8.65;3.50;;;;;;;22.89;56.80;99671.91;4911246;28;106036;-65
2021/07/06 22:18:34;;;;;;;9.50;3.50;;;;;;;22.81;56.79;99679.50;4911516;28;106101;-65
2021/07/06 22:21:00;;;;;;;5.40;2.88;;;;;;;22.73;56.98;99676.44;4910451;28;106411;-65
2021/07/06 22:23:25;;;;;;;7.10;3.42;;;;;;;22.65;57.45;99681.28;4910905;28;112788;-64
2021/07/06 22:25:51;;;;;;;6.68;2.92;;;;;;;22.60;57.68;99686.69;4910903;28;106125;-64
2021/07/06 22:28:17;;;;;;;4.95;3.10;;;;;;;22.55;57.76;99680.41;4911853;28;106177;-64
2021/07/06 22:30:42;;;;;;;6.43;3.30;;;;;;;22.53;57.96;99677.16;4910905;28;105921;-64
2021/07/06 22:33:08;;;;;;;5.57;2.97;;;;;;;22.55;58.23;99689.38;4909606;28;106679;-65
2021/07/06 22:35:35;;;;;;;6.60;2.83;;;;;;;22.57;58.29;99687.22;4909019;28;106343;-63
2021/07/06 22:38:01;;;;;;;5.43;2.95;;;;;;;22.55;58.12;99692.09;4909559;28;106304;-64
2021/07/06 22:40:26;;;;;;;5.97;3.00;;;;;;;22.50;58.34;99692.06;4909296;28;106031;-64
2021/07/06 22:42:52;;;;;;;7.85;3.20;;;;;;;22.46;58.31;99694.47;4909476;28;106376;-64
2021/07/06 22:45:17;;;;;;;4.93;2.70;;;;;;;22.33;58.14;99697.59;4911059;28;106515;-66
2021/07/06 22:47:43;;;;;;;5.32;3.17;;;;;;;22.18;58.51;99703.72;4911835;28;106052;-64
2021/07/06 22:50:09;;;;;;;5.50;3.10;;;;;;;22.06;58.68;99700.38;4910609;28;106154;-64
2021/07/06 22:52:34;;;;;;;5.47;2.97;;;;;;;21.93;58.95;99697.03;4910773;28;106669;-64
2021/07/06 22:55:00;;;;;;;6.28;3.40;;;;;;;21.81;59.27;99712.63;4910185;28;106023;-64
2021/07/06 22:57:31;;;;;;;7.20;3.60;;;;;;;21.73;59.61;99707.69;4911545;28;106114;-64
2021/07/06 22:59:58;;;;;;;8.07;3.40;;;;;;;21.67;59.93;99711.44;4911163;28;106226;-64
2021/07/06 23:02:23;;;;;;;4.07;2.90;;;;;;;21.62;60.14;99704.88;4910748;28;106081;-64
2021/07/06 23:04:48;;;;;;;5.65;3.28;;;;;;;21.57;60.39;99710.25;4910666;28;106455;-63
2021/07/06 23:07:14;;;;;;;8.50;3.17;;;;;;;21.56;60.58;99710.50;4911203;28;106123;-63
2021/07/06 23:09:39;;;;;;;5.07;2.95;;;;;;;21.53;60.65;99709.13;4910454;28;106033;-64
2021/07/06 23:12:05;;;;;;;4.93;3.25;;;;;;;21.46;60.89;99703.84;4909350;28;106231;-64
2021/07/06 23:14:30;;;;;;;6.78;2.92;;;;;;;21.41;60.96;99703.78;4910104;28;106406;-64
2021/07/06 23:16:55;;;;;;;7.75;3.22;;;;;;;21.38;61.14;99700.75;4910955;28;106143;-65
2021/07/06 23:19:21;;;;;;;5.80;3.38;;;;;;;21.34;61.35;99705.06;4910350;28;106000;-64
